Hicks Bay, New Zealand
Current Conditions -  °F | °C
As of 12:30 PM on Tuesday 23 Dec 2014 (Local Time) from NZAA Reporting Station
Clear Clear  
Wind Chill: 70°   Ceiling: Unl
Heat Index: 70°   Visibility: 6mi
Dew Point: 57°   Wind: 8mph
Humidity: 64%   Direction: 200°SSW
Pressure: 30.21"   Gusts: NA
Location:  37.59°S, 178.29°E
Report Text: NZAA 230030Z AUTO 20007KT 140V230 9999 NCD 21/14 Q1023 NOSIG
Loading
Personal Weather Stations






























Interactive Weather Map New forecast layout! Learn more

10-Day Weather Forecast

Advertisements
Track Severe Weather on mobile